Airport details for: EPSY (Poland)

Metar

EPSY 252200Z 32009KT CAVOK 01/M01 Q1020

General details

ICAO: EPSY
IATA: SZY
Name (city): Mazury
Major:
Country: Poland
vACC: vACC Poland
Description:

Located in the very heart of the region Olsztyn Masuria Airport is a contemporary, international property featuring full infrastructure ready to service passenger - carrying - flights both regular and chartered. Port` s check - in capacity reaches up to 500 000 passengers yearly.

Scenery links:
FS9 scenery:
FSX/P3D scenery: Download
XP scenery:
Elevation: 463 ft.
Transition altitude: 0 ft.
MSA: 6500 ft.
Latitude: 53.481945
Longitude: 20.937778
EPSY Charts
EPSY Notams
EPSY Online stations

Runways

Number Course Length Elevation Lat Lon ILS ILS freq ILS FAC GP
02 16° 6562ft / 2000 m 438ft 53.471208 20.931725 110.1 16° 3.0°
20 196° 6562ft / 2000 m 462ft 53.488253 20.94127 - - 3.0°